sensor_id;sensor_type;location;lat;lon;timestamp;P1;durP1;ratioP1;P2;durP2;ratioP2
21517;SDS011;61765;45.794;24.150;2022-10-31T00:07:41;36.28;;;23.35;;
21517;SDS011;61765;45.794;24.150;2022-10-31T00:15:48;31.75;;;22.90;;
21517;SDS011;61765;45.794;24.150;2022-10-31T00:23:54;39.75;;;23.48;;
21517;SDS011;61765;45.794;24.150;2022-10-31T00:32:02;35.67;;;23.80;;
21517;SDS011;61765;45.794;24.150;2022-10-31T00:40:08;37.42;;;23.27;;
21517;SDS011;61765;45.794;24.150;2022-10-31T00:48:17;32.30;;;22.38;;
21517;SDS011;61765;45.794;24.150;2022-10-31T00:56:22;32.70;;;22.02;;
21517;SDS011;61765;45.794;24.150;2022-10-31T01:04:31;38.38;;;23.70;;
21517;SDS011;61765;45.794;24.150;2022-10-31T01:12:36;29.80;;;22.27;;
21517;SDS011;61765;45.794;24.150;2022-10-31T01:20:44;32.58;;;22.42;;
21517;SDS011;61765;45.794;24.150;2022-10-31T01:28:50;32.90;;;22.30;;
21517;SDS011;61765;45.794;24.150;2022-10-31T01:36:59;35.45;;;23.08;;
21517;SDS011;61765;45.794;24.150;2022-10-31T01:45:05;39.80;;;27.08;;
21517;SDS011;61765;45.794;24.150;2022-10-31T01:53:17;41.47;;;24.70;;
21517;SDS011;61765;45.794;24.150;2022-10-31T02:01:27;37.13;;;24.87;;
21517;SDS011;61765;45.794;24.150;2022-10-31T02:09:36;32.45;;;22.83;;
21517;SDS011;61765;45.794;24.150;2022-10-31T02:17:42;36.97;;;23.23;;
21517;SDS011;61765;45.794;24.150;2022-10-31T02:25:57;34.90;;;21.98;;
21517;SDS011;61765;45.794;24.150;2022-10-31T02:34:28;32.92;;;22.08;;
21517;SDS011;61765;45.794;24.150;2022-10-31T02:42:43;35.70;;;22.83;;
21517;SDS011;61765;45.794;24.150;2022-10-31T02:50:57;37.77;;;23.83;;
21517;SDS011;61765;45.794;24.150;2022-10-31T02:59:05;34.15;;;22.77;;
21517;SDS011;61765;45.794;24.150;2022-10-31T03:07:15;32.95;;;22.23;;
21517;SDS011;61765;45.794;24.150;2022-10-31T03:15:26;34.78;;;23.98;;
21517;SDS011;61765;45.794;24.150;2022-10-31T03:23:37;35.88;;;23.85;;
21517;SDS011;61765;45.794;24.150;2022-10-31T03:31:53;38.25;;;23.90;;
21517;SDS011;61765;45.794;24.150;2022-10-31T03:40:05;34.95;;;24.60;;
21517;SDS011;61765;45.794;24.150;2022-10-31T03:48:14;29.30;;;21.48;;
21517;SDS011;61765;45.794;24.150;2022-10-31T03:56:27;28.83;;;21.17;;
21517;SDS011;61765;45.794;24.150;2022-10-31T04:04:36;34.70;;;22.90;;
21517;SDS011;61765;45.794;24.150;2022-10-31T04:12:47;32.03;;;21.90;;
21517;SDS011;61765;45.794;24.150;2022-10-31T04:21:01;37.83;;;23.40;;
21517;SDS011;61765;45.794;24.150;2022-10-31T04:29:10;30.13;;;20.85;;
21517;SDS011;61765;45.794;24.150;2022-10-31T04:37:16;35.75;;;22.73;;
21517;SDS011;61765;45.794;24.150;2022-10-31T04:45:25;40.25;;;24.67;;
21517;SDS011;61765;45.794;24.150;2022-10-31T04:53:30;41.00;;;25.63;;
21517;SDS011;61765;45.794;24.150;2022-10-31T05:02:01;37.65;;;24.55;;
21517;SDS011;61765;45.794;24.150;2022-10-31T05:10:21;42.50;;;25.65;;
21517;SDS011;61765;45.794;24.150;2022-10-31T05:18:34;36.65;;;23.98;;
21517;SDS011;61765;45.794;24.150;2022-10-31T05:35:14;32.50;;;22.00;;
21517;SDS011;61765;45.794;24.150;2022-10-31T05:43:40;34.17;;;23.40;;
21517;SDS011;61765;45.794;24.150;2022-10-31T05:51:49;36.40;;;22.63;;
21517;SDS011;61765;45.794;24.150;2022-10-31T06:00:01;37.38;;;24.23;;
21517;SDS011;61765;45.794;24.150;2022-10-31T06:08:24;37.90;;;22.17;;
21517;SDS011;61765;45.794;24.150;2022-10-31T06:16:32;38.67;;;23.42;;
21517;SDS011;61765;45.794;24.150;2022-10-31T06:25:00;43.00;;;26.35;;
21517;SDS011;61765;45.794;24.150;2022-10-31T06:33:11;45.35;;;27.50;;
21517;SDS011;61765;45.794;24.150;2022-10-31T06:41:29;49.47;;;26.40;;
21517;SDS011;61765;45.794;24.150;2022-10-31T06:49:34;43.17;;;25.65;;
21517;SDS011;61765;45.794;24.150;2022-10-31T06:57:51;50.80;;;27.25;;
21517;SDS011;61765;45.794;24.150;2022-10-31T07:06:04;55.88;;;28.55;;
21517;SDS011;61765;45.794;24.150;2022-10-31T07:14:12;65.45;;;31.25;;
21517;SDS011;61765;45.794;24.150;2022-10-31T07:22:18;66.15;;;30.60;;
21517;SDS011;61765;45.794;24.150;2022-10-31T07:30:26;71.35;;;29.83;;
21517;SDS011;61765;45.794;24.150;2022-10-31T07:38:32;67.50;;;30.60;;
21517;SDS011;61765;45.794;24.150;2022-10-31T07:46:41;72.65;;;33.83;;
21517;SDS011;61765;45.794;24.150;2022-10-31T07:55:05;59.45;;;28.15;;
21517;SDS011;61765;45.794;24.150;2022-10-31T08:03:14;54.85;;;27.42;;
21517;SDS011;61765;45.794;24.150;2022-10-31T08:11:39;51.97;;;26.45;;
21517;SDS011;61765;45.794;24.150;2022-10-31T08:19:47;51.60;;;25.58;;
21517;SDS011;61765;45.794;24.150;2022-10-31T08:27:57;48.22;;;26.13;;
21517;SDS011;61765;45.794;24.150;2022-10-31T08:36:06;54.00;;;29.10;;
21517;SDS011;61765;45.794;24.150;2022-10-31T08:44:24;56.67;;;29.85;;
21517;SDS011;61765;45.794;24.150;2022-10-31T08:52:32;52.67;;;28.77;;
21517;SDS011;61765;45.794;24.150;2022-10-31T09:00:58;46.35;;;26.00;;
21517;SDS011;61765;45.794;24.150;2022-10-31T09:09:07;53.42;;;25.85;;
21517;SDS011;61765;45.794;24.150;2022-10-31T09:17:13;51.83;;;26.92;;
21517;SDS011;61765;45.794;24.150;2022-10-31T09:25:41;58.38;;;32.40;;
21517;SDS011;61765;45.794;24.150;2022-10-31T09:34:03;60.22;;;33.90;;
21517;SDS011;61765;45.794;24.150;2022-10-31T09:50:58;53.95;;;31.42;;
21517;SDS011;61765;45.794;24.150;2022-10-31T10:17:03;49.17;;;30.45;;
21517;SDS011;61765;45.794;24.150;2022-10-31T10:25:24;47.90;;;30.25;;
21517;SDS011;61765;45.794;24.150;2022-10-31T10:33:36;50.92;;;30.55;;
21517;SDS011;61765;45.794;24.150;2022-10-31T10:41:45;45.53;;;29.05;;
21517;SDS011;61765;45.794;24.150;2022-10-31T10:50:09;51.22;;;34.00;;
21517;SDS011;61765;45.794;24.150;2022-10-31T10:58:19;58.08;;;34.10;;
21517;SDS011;61765;45.794;24.150;2022-10-31T11:06:27;55.88;;;32.83;;
21517;SDS011;61765;45.794;24.150;2022-10-31T11:14:33;53.47;;;34.08;;
21517;SDS011;61765;45.794;24.150;2022-10-31T11:22:59;61.28;;;36.92;;
21517;SDS011;61765;45.794;24.150;2022-10-31T11:31:07;55.15;;;31.83;;
21517;SDS011;61765;45.794;24.150;2022-10-31T11:39:20;50.72;;;33.58;;
21517;SDS011;61765;45.794;24.150;2022-10-31T11:47:28;62.75;;;35.55;;
21517;SDS011;61765;45.794;24.150;2022-10-31T11:55:38;60.58;;;35.22;;
21517;SDS011;61765;45.794;24.150;2022-10-31T12:03:54;53.20;;;32.63;;
21517;SDS011;61765;45.794;24.150;2022-10-31T12:20:59;55.47;;;34.53;;
21517;SDS011;61765;45.794;24.150;2022-10-31T12:29:24;57.25;;;34.90;;
21517;SDS011;61765;45.794;24.150;2022-10-31T12:37:42;50.70;;;32.60;;
21517;SDS011;61765;45.794;24.150;2022-10-31T12:45:57;48.42;;;32.67;;
21517;SDS011;61765;45.794;24.150;2022-10-31T13:02:36;55.03;;;34.78;;
21517;SDS011;61765;45.794;24.150;2022-10-31T13:10:47;51.65;;;34.33;;
21517;SDS011;61765;45.794;24.150;2022-10-31T13:18:58;49.63;;;33.40;;
21517;SDS011;61765;45.794;24.150;2022-10-31T13:27:10;50.67;;;33.00;;
21517;SDS011;61765;45.794;24.150;2022-10-31T13:35:25;56.53;;;32.83;;
21517;SDS011;61765;45.794;24.150;2022-10-31T13:43:39;54.88;;;32.78;;
21517;SDS011;61765;45.794;24.150;2022-10-31T13:52:10;44.33;;;28.38;;
21517;SDS011;61765;45.794;24.150;2022-10-31T14:00:23;44.90;;;28.27;;
21517;SDS011;61765;45.794;24.150;2022-10-31T14:08:33;42.28;;;25.67;;
21517;SDS011;61765;45.794;24.150;2022-10-31T14:16:41;33.05;;;22.35;;
21517;SDS011;61765;45.794;24.150;2022-10-31T14:24:57;35.10;;;22.10;;
21517;SDS011;61765;45.794;24.150;2022-10-31T14:33:18;28.42;;;19.52;;
21517;SDS011;61765;45.794;24.150;2022-10-31T14:41:40;33.47;;;19.92;;
21517;SDS011;61765;45.794;24.150;2022-10-31T14:58:32;34.08;;;21.67;;
21517;SDS011;61765;45.794;24.150;2022-10-31T15:06:42;36.20;;;23.02;;
21517;SDS011;61765;45.794;24.150;2022-10-31T15:14:51;38.03;;;23.80;;
21517;SDS011;61765;45.794;24.150;2022-10-31T15:22:58;42.65;;;26.73;;
21517;SDS011;61765;45.794;24.150;2022-10-31T15:31:12;48.25;;;30.92;;
21517;SDS011;61765;45.794;24.150;2022-10-31T15:39:19;45.60;;;30.77;;
21517;SDS011;61765;45.794;24.150;2022-10-31T15:47:28;49.53;;;31.52;;
21517;SDS011;61765;45.794;24.150;2022-10-31T15:55:35;49.17;;;32.67;;
21517;SDS011;61765;45.794;24.150;2022-10-31T16:04:02;58.92;;;34.53;;
21517;SDS011;61765;45.794;24.150;2022-10-31T16:12:11;60.60;;;36.28;;
21517;SDS011;61765;45.794;24.150;2022-10-31T16:20:27;68.55;;;40.15;;
21517;SDS011;61765;45.794;24.150;2022-10-31T16:28:33;89.32;;;50.67;;
21517;SDS011;61765;45.794;24.150;2022-10-31T16:36:46;80.38;;;50.33;;
21517;SDS011;61765;45.794;24.150;2022-10-31T16:44:51;91.88;;;56.92;;
21517;SDS011;61765;45.794;24.150;2022-10-31T16:52:59;94.78;;;55.00;;
21517;SDS011;61765;45.794;24.150;2022-10-31T17:01:20;102.57;;;59.50;;
21517;SDS011;61765;45.794;24.150;2022-10-31T17:09:28;111.18;;;61.35;;
21517;SDS011;61765;45.794;24.150;2022-10-31T17:17:33;88.57;;;50.53;;
21517;SDS011;61765;45.794;24.150;2022-10-31T17:25:41;87.03;;;51.05;;
21517;SDS011;61765;45.794;24.150;2022-10-31T17:33:47;87.55;;;52.47;;
21517;SDS011;61765;45.794;24.150;2022-10-31T17:41:55;100.82;;;55.20;;
21517;SDS011;61765;45.794;24.150;2022-10-31T17:50:04;91.07;;;48.83;;
21517;SDS011;61765;45.794;24.150;2022-10-31T17:58:12;81.90;;;47.97;;
21517;SDS011;61765;45.794;24.150;2022-10-31T18:06:17;82.60;;;46.25;;
21517;SDS011;61765;45.794;24.150;2022-10-31T18:14:25;81.90;;;46.92;;
21517;SDS011;61765;45.794;24.150;2022-10-31T18:22:31;87.90;;;51.33;;
21517;SDS011;61765;45.794;24.150;2022-10-31T18:30:42;88.97;;;52.78;;
21517;SDS011;61765;45.794;24.150;2022-10-31T18:38:48;86.13;;;52.58;;
21517;SDS011;61765;45.794;24.150;2022-10-31T18:46:56;94.72;;;61.05;;
21517;SDS011;61765;45.794;24.150;2022-10-31T18:55:04;113.65;;;66.63;;
21517;SDS011;61765;45.794;24.150;2022-10-31T19:03:15;107.82;;;64.03;;
21517;SDS011;61765;45.794;24.150;2022-10-31T19:11:26;102.47;;;61.72;;
21517;SDS011;61765;45.794;24.150;2022-10-31T19:19:37;99.55;;;58.05;;
21517;SDS011;61765;45.794;24.150;2022-10-31T19:27:42;89.97;;;55.72;;
21517;SDS011;61765;45.794;24.150;2022-10-31T19:35:50;98.57;;;58.03;;
21517;SDS011;61765;45.794;24.150;2022-10-31T19:43:57;93.05;;;55.47;;
21517;SDS011;61765;45.794;24.150;2022-10-31T19:52:06;90.80;;;55.13;;
21517;SDS011;61765;45.794;24.150;2022-10-31T20:00:12;86.35;;;51.95;;
21517;SDS011;61765;45.794;24.150;2022-10-31T20:08:22;81.15;;;49.17;;
21517;SDS011;61765;45.794;24.150;2022-10-31T20:16:29;82.53;;;49.97;;
21517;SDS011;61765;45.794;24.150;2022-10-31T20:24:38;76.50;;;48.58;;
21517;SDS011;61765;45.794;24.150;2022-10-31T20:32:43;87.40;;;50.90;;
21517;SDS011;61765;45.794;24.150;2022-10-31T20:40:53;91.93;;;52.20;;
21517;SDS011;61765;45.794;24.150;2022-10-31T20:49:04;83.70;;;49.88;;
21517;SDS011;61765;45.794;24.150;2022-10-31T20:57:12;81.05;;;49.47;;
21517;SDS011;61765;45.794;24.150;2022-10-31T21:05:17;85.53;;;50.05;;
21517;SDS011;61765;45.794;24.150;2022-10-31T21:13:25;80.13;;;49.10;;
21517;SDS011;61765;45.794;24.150;2022-10-31T21:21:34;80.78;;;46.42;;
21517;SDS011;61765;45.794;24.150;2022-10-31T21:29:44;82.30;;;49.38;;
21517;SDS011;61765;45.794;24.150;2022-10-31T21:37:50;80.75;;;49.60;;
21517;SDS011;61765;45.794;24.150;2022-10-31T21:45:58;71.30;;;45.20;;
21517;SDS011;61765;45.794;24.150;2022-10-31T21:54:06;68.13;;;42.60;;
21517;SDS011;61765;45.794;24.150;2022-10-31T22:02:28;68.30;;;43.35;;
21517;SDS011;61765;45.794;24.150;2022-10-31T22:10:33;73.35;;;44.00;;
21517;SDS011;61765;45.794;24.150;2022-10-31T22:18:42;84.35;;;45.75;;
21517;SDS011;61765;45.794;24.150;2022-10-31T22:26:48;90.35;;;48.75;;
21517;SDS011;61765;45.794;24.150;2022-10-31T22:34:56;89.30;;;46.90;;
21517;SDS011;61765;45.794;24.150;2022-10-31T22:43:01;98.38;;;49.38;;
21517;SDS011;61765;45.794;24.150;2022-10-31T22:51:10;99.05;;;47.63;;
21517;SDS011;61765;45.794;24.150;2022-10-31T22:59:16;78.43;;;41.45;;
21517;SDS011;61765;45.794;24.150;2022-10-31T23:07:24;78.00;;;44.97;;
21517;SDS011;61765;45.794;24.150;2022-10-31T23:15:35;82.57;;;45.88;;
21517;SDS011;61765;45.794;24.150;2022-10-31T23:23:43;88.40;;;48.75;;
21517;SDS011;61765;45.794;24.150;2022-10-31T23:31:49;82.97;;;44.65;;
21517;SDS011;61765;45.794;24.150;2022-10-31T23:39:57;74.60;;;42.83;;
21517;SDS011;61765;45.794;24.150;2022-10-31T23:48:03;74.97;;;43.22;;
21517;SDS011;61765;45.794;24.150;2022-10-31T23:56:12;83.25;;;46.65;;
